Trenton Mercer Airport
KTTN : now visible

Airfield :











YOU CAN JOIN US ON...

 
LOGIN :

Register | Disclaimer

   EN    FR    IT 

 









Legend :    VFR   Marginal VFR   IFR   Intensive IFR   Very Intensive IFR
Visi :
Ceiling :
>= 8 km
>= 3000ft
5 to 8 km
1000 to 3000 ft
1500m to 5 km
500 to 1000 ft
800 to 1500m
200 to 500 ft
< 800m
< 200 ft
Symbols :   Thunderstorms  Fog  Heavy snow  Heavy precipitations  Wind > 20 kt






- Airport Elevation : 213 ft
- IATA code : TTN


KTTN - Trenton Mercer

CURRENT METAR :
  • 050453Z AUTO 27006KT 10SM CLR 04/M01 A2992 RMK AO2 SLP127 T00391011 401000028

EXPIRED METARs :
  • 050353Z AUTO 28005KT 10SM CLR 04/M01 A2990 RMK AO2 SLP121 T00441006
  • 050253Z 27005KT 10SM CLR 04/M01 A2989 RMK AO2 SLP116 T00441006 51010
  • 050153Z 26006KT 10SM CLR 05/00 A2988 RMK AO2 SLP113 T00500000
  • 050053Z 26005KT 10SM CLR 06/00 A2987 RMK AO2 SLP111 T00560000

TAF KTTN
Valid from the 05 at 06:00 until the 06 at 06:00 UTC


050533Z 0506/0606 29005KT P6SM FEW250
FM051500 31006KT P6SM FEW040 OVC200
FM052000 32005KT P6SM BKN060 OVC150
FM060000 VRB03KT P6SM OVC050
KZDC FIR / North America



MET'MAP, your aeronautical weather chart ! - Copyright ORBIFLY December 2007 - Disclaimer

ORBIFLY MET'MAP TEAM :

Programming & Development : Alexandra Zaïnal
Original concept : Baudouin d'Aumeries
Technical & hardware support : Manuel Goepfert
Assistance : Marc-Olivier Méhu




SOURCES & CREDITS :

   NOAA       Earth
Advisory